• Join FlightAware (Why Join?)
  • Login
  • US Flag 
01:38AM EDT


 

Airport Tracker/Info


-or-


 

Live Flight TrackerFlight Track Log ✈ WEW1540 ✈ 06-May-2013 ✈ CYYN - CYKY

Flight Track Log - Related Links

Times and Time Zones

All times are in EDT time to prevent confusion due to time zone crossing. See the WEW1540 flight status page for this flight to view local times or setup timezone preferences in your user account.

Time Position Orientation Groundspeed Altitude Reporting Facility
EDT Latitude Longitude Course Direction KTS MPH feet Rate Location/Type
11:48AM 50.5833 -108.0259 322° Northwest  Level FlightAware Approximate
11:49AM 50.6199 -108.0708 322° Northwest  Level FlightAware Approximate
11:50AM 50.6565 -108.1158 322° Northwest  Level FlightAware Approximate
11:51AM 50.6930 -108.1609 322° Northwest  Level FlightAware Approximate
11:52AM 50.7296 -108.2060 322° Northwest  Level FlightAware Approximate
11:53AM 50.7661 -108.2513 322° Northwest  Level FlightAware Approximate
11:54AM 50.8026 -108.2965 322° Northwest  Level FlightAware Approximate
11:55AM 50.8391 -108.3419 322° Northwest  Level FlightAware Approximate
11:56AM 50.8756 -108.3873 322° Northwest  Level FlightAware Approximate
11:57AM 50.9120 -108.4328 322° Northwest  Level FlightAware Approximate
11:57AM 50.9500 -108.5333 322° Northwest 190 219 8,000  Level Winnipeg Center
11:58AM 50.9484 -108.4784 322° Northwest  Level FlightAware Approximate
11:59AM 50.9849 -108.5240 322° Northwest  Level FlightAware Approximate
11:59AM 51.0333 -108.6333 323° Northwest 200 230 8,000  Level Winnipeg Center
12:00PM 51.0213 -108.5697 322° Northwest  Level FlightAware Approximate
12:00PM 51.0667 -108.6667 328° Northwest 180 207 8,000  Level Winnipeg Center
12:01PM 51.0577 -108.6155 322° Northwest  Level FlightAware Approximate
12:02PM 51.0940 -108.6613 322° Northwest  Level FlightAware Approximate
12:02PM 51.1392 -108.7486 325° Northwest  Level Estimated
12:02PM 51.1333 -108.7667 325° Northwest 170 196 8,000  Level Winnipeg Center
12:03PM 51.1833 -108.8333 320° Northwest 190 219 7,300 -720 Descending Winnipeg Center
12:05PM 51.2633 -108.8954 334° Northwest  Level FlightAware Approximate
12:12PM 51.5000 -109.1667 323° Northwest  Level FlightAware Approximate
12:13PM 51.5175 -109.1808 323° Northwest  Level Estimated
12:14PM 51.5175 -109.1808 323° Northwest  Level Estimated
12:15PM 51.5175 -109.1808 323° Northwest  Level Estimated
12:16PM 51.5175 -109.1808 323° Northwest  Level Estimated
12:17PM 51.5175 -109.1808 323° Northwest  Level Estimated
12:18PM 51.5175 -109.1808 323° Northwest  Level Estimated
12:19PM 51.5175 -109.1808 323° Northwest  Level Estimated
12:20PM 51.5175 -109.1808 323° Northwest  Level Estimated
12:21PM 51.5175 -109.1808 323° Northwest  Level Estimated
12:22PM 51.5175 -109.1808 323° Northwest  Level Estimated
12:23PM 51.5175 -109.1808 323° Northwest  Level Estimated
12:24PM 51.5175 -109.1808 323° Northwest  Level Estimated
12:25PM 51.5175 -109.1808 323° Northwest  Level Estimated
12:26PM 51.5175 -109.1808 323° Northwest  Level Estimated
12:27PM 51.5175 -109.1808 323° Northwest  Level Estimated
12:28PM 51.5175 -109.1808 323° Northwest  Level Estimated